Time;durP1;ratioP1;P1;durP2;ratioP2;P2;SDS_P1;SDS_P2;PMS_P1;PMS_P2;Temp;Humidity;BMP_temperature;BMP_pressure;BME280_temperature;BME280_humidity;BME280_pressure;Samples;Min_cycle;Max_cycle;Signal;HPM_P1;HPM_P2
2022/05/21 00:02:09;;;;;;;2.38;1.20;;;14.90;57.70;;;;;;5070690;28;20271;-58
2022/05/21 00:04:41;;;;;;;1.70;1.00;;;14.90;57.60;;;;;;5070336;28;20191;-58
2022/05/21 00:07:12;;;;;;;2.13;1.27;;;14.90;57.60;;;;;;5070822;28;20694;-58
2022/05/21 00:09:45;;;;;;;2.75;1.15;;;14.90;57.60;;;;;;5070608;28;20230;-59
2022/05/21 00:12:15;;;;;;;3.42;1.52;;;15.00;57.60;;;;;;5070790;28;20191;-58
2022/05/21 00:14:46;;;;;;;1.98;1.60;;;15.00;57.50;;;;;;5070724;28;20194;-58
2022/05/21 00:17:16;;;;;;;2.63;1.25;;;15.00;57.50;;;;;;5070517;28;20195;-59
2022/05/21 00:19:47;;;;;;;2.70;1.42;;;15.00;57.50;;;;;;5070021;28;20554;-58
2022/05/21 00:22:17;;;;;;;2.10;1.23;;;15.10;57.50;;;;;;5070515;28;20202;-58
2022/05/21 00:24:50;;;;;;;3.58;1.52;;;15.10;57.40;;;;;;5070208;28;20234;-58
2022/05/21 00:27:20;;;;;;;3.80;1.20;;;15.10;57.40;;;;;;5070125;28;20245;-58
2022/05/21 00:29:51;;;;;;;1.90;1.00;;;15.10;57.40;;;;;;5070317;28;20199;-58
2022/05/21 00:32:21;;;;;;;1.90;1.20;;;15.10;57.40;;;;;;5070044;28;20228;-59
2022/05/21 00:34:52;;;;;;;1.83;1.25;;;15.20;57.30;;;;;;5069899;28;20271;-58
2022/05/21 00:37:22;;;;;;;4.60;1.45;;;15.20;57.30;;;;;;5069850;28;20210;-58
2022/05/21 00:39:55;;;;;;;2.88;1.85;;;15.20;57.30;;;;;;5069609;28;20244;-59
2022/05/21 00:42:25;;;;;;;2.08;1.20;;;15.20;57.30;;;;;;5069780;28;20199;-58
2022/05/21 00:44:56;;;;;;;2.15;1.48;;;15.20;57.30;;;;;;5069922;28;20262;-58
2022/05/21 00:47:26;;;;;;;1.73;1.20;;;15.30;57.30;;;;;;5070452;28;20199;-59
2022/05/21 00:49:58;;;;;;;3.65;1.67;;;15.30;57.30;;;;;;5069568;28;20191;-58
2022/05/21 00:52:30;;;;;;;2.08;1.17;;;15.30;57.20;;;;;;5069879;28;20312;-59
2022/05/21 00:55:09;;;;;;;3.00;1.52;;;15.30;57.20;;;;;;5069296;28;20268;-59
2022/05/21 00:57:42;;;;;;;2.53;1.50;;;15.30;57.20;;;;;;5067852;28;20190;-58
2022/05/21 01:00:16;;;;;;;2.55;1.10;;;15.40;57.20;;;;;;5069794;28;20288;-58
2022/05/21 01:02:52;;;;;;;2.15;1.27;;;15.40;57.10;;;;;;5069747;28;20219;-58
2022/05/21 01:05:25;;;;;;;2.25;1.48;;;15.40;57.10;;;;;;5069997;28;20255;-58
2022/05/21 01:07:59;;;;;;;3.30;1.30;;;15.50;57.00;;;;;;5070008;28;20695;-59
2022/05/21 01:10:35;;;;;;;2.45;1.38;;;15.50;57.00;;;;;;5069484;28;20386;-58
2022/05/21 01:13:09;;;;;;;4.03;1.58;;;15.50;57.00;;;;;;5069674;28;20214;-58
2022/05/21 01:15:42;;;;;;;2.90;1.40;;;15.50;57.00;;;;;;5069996;28;20227;-59
2022/05/21 01:18:13;;;;;;;2.15;1.15;;;15.50;57.00;;;;;;5069874;28;20195;-58
2022/05/21 01:20:47;;;;;;;1.88;1.20;;;15.50;56.90;;;;;;5069957;28;20221;-58
2022/05/21 01:23:20;;;;;;;2.92;1.15;;;15.50;56.90;;;;;;5069527;28;20225;-58
2022/05/21 01:25:52;;;;;;;2.67;1.27;;;15.60;56.90;;;;;;5069202;28;20199;-58
2022/05/21 01:28:24;;;;;;;2.95;1.50;;;15.60;56.90;;;;;;5068792;28;20650;-58
2022/05/21 01:30:56;;;;;;;2.00;1.08;;;15.60;56.90;;;;;;5069230;28;20186;-59
2022/05/21 01:33:28;;;;;;;2.50;1.50;;;15.70;56.80;;;;;;5069292;28;20218;-58
2022/05/21 01:36:00;;;;;;;1.10;1.00;;;15.70;57.40;;;;;;5069158;28;20222;-59
2022/05/21 01:38:35;;;;;;;2.22;1.20;;;15.70;56.70;;;;;;5069806;28;20191;-58
2022/05/21 01:41:05;;;;;;;1.75;1.00;;;15.70;56.60;;;;;;5069568;28;20206;-60
2022/05/21 01:46:23;;;;;;;2.78;1.02;;;15.80;56.60;;;;;;5070158;28;20191;-58
2022/05/21 01:48:54;;;;;;;1.35;0.90;;;15.90;56.60;;;;;;5069333;28;20195;-59
2022/05/21 01:51:24;;;;;;;1.83;1.23;;;15.80;56.50;;;;;;5069285;28;20199;-58
2022/05/21 01:53:57;;;;;;;1.83;1.23;;;15.90;56.50;;;;;;5068918;28;20215;-59
2022/05/21 01:56:27;;;;;;;3.05;1.40;;;15.90;56.50;;;;;;5069064;28;20254;-58
2022/05/21 01:58:58;;;;;;;2.22;1.15;;;15.90;56.50;;;;;;5069230;28;20191;-58
2022/05/21 02:01:28;;;;;;;2.83;1.05;;;16.00;56.50;;;;;;5069227;28;20217;-58
2022/05/21 02:03:59;;;;;;;2.22;1.20;;;16.00;56.50;;;;;;5069154;28;20219;-58
2022/05/21 02:06:30;;;;;;;2.42;1.08;;;16.00;56.50;;;;;;5068824;28;20195;-58
2022/05/21 02:09:02;;;;;;;2.75;1.13;;;16.00;56.40;;;;;;5070585;28;20191;-59
2022/05/21 02:11:33;;;;;;;3.10;1.15;;;16.10;56.40;;;;;;5072732;28;20195;-58
2022/05/21 02:14:03;;;;;;;2.15;1.30;;;16.10;56.40;;;;;;5071980;28;20748;-58
2022/05/21 02:16:35;;;;;;;2.78;1.10;;;16.10;56.40;;;;;;5072147;28;20694;-59
2022/05/21 02:19:07;;;;;;;2.25;1.10;;;16.10;56.30;;;;;;5071897;28;20195;-58
2022/05/21 02:21:38;;;;;;;1.85;1.10;;;16.20;56.30;;;;;;5072246;28;20191;-59
2022/05/21 02:24:13;;;;;;;1.52;1.20;;;16.20;56.30;;;;;;5072421;28;20254;-58
2022/05/21 02:26:43;;;;;;;2.65;1.20;;;16.20;56.90;;;;;;5072642;28;20302;-58
2022/05/21 02:29:14;;;;;;;1.98;1.10;;;16.30;56.30;;;;;;5072607;28;20255;-58
2022/05/21 02:31:44;;;;;;;1.77;1.20;;;16.30;56.20;;;;;;5072408;28;20215;-58
2022/05/21 02:34:15;;;;;;;2.03;1.25;;;16.30;56.80;;;;;;5071922;28;20255;-58
2022/05/21 02:39:34;;;;;;;2.10;0.95;;;16.40;56.10;;;;;;5072500;28;20206;-58
2022/05/21 02:42:42;;;;;;;1.80;1.02;;;16.40;56.10;;;;;;5072085;28;20787;-58
2022/05/21 02:44:56;;;;;;;1.73;1.05;;;16.50;56.10;;;;;;5071474;28;20628;-58
2022/05/21 02:47:27;;;;;;;2.10;1.13;;;16.50;56.10;;;;;;5072535;28;20253;-58
2022/05/21 02:49:58;;;;;;;0.82;0.70;;;16.50;56.10;;;;;;5072052;28;20195;-58
2022/05/21 02:52:28;;;;;;;1.70;0.93;;;16.50;56.00;;;;;;5071639;28;20195;-58
2022/05/21 02:55:01;;;;;;;1.48;1.10;;;16.60;56.00;;;;;;5072002;28;20268;-58
2022/05/21 02:57:31;;;;;;;1.48;1.10;;;16.60;56.00;;;;;;5071174;28;20229;-58
2022/05/21 03:00:05;;;;;;;2.08;1.00;;;16.60;56.50;;;;;;5071974;28;20195;-58
2022/05/21 03:02:35;;;;;;;1.02;0.68;;;16.70;55.80;;;;;;5072117;28;20621;-58
2022/05/21 03:05:06;;;;;;;1.45;1.00;;;16.70;55.80;;;;;;5072029;28;20221;-59
2022/05/21 03:07:40;;;;;;;2.47;1.15;;;16.70;55.70;;;;;;5071254;28;20199;-58
2022/05/21 03:10:24;;;;;;;1.10;0.88;;;16.80;55.60;;;;;;5071510;28;20230;-58
2022/05/21 03:12:56;;;;;;;1.75;1.00;;;16.80;55.60;;;;;;5071551;28;20401;-58
2022/05/21 03:15:30;;;;;;;1.25;0.98;;;16.90;55.70;;;;;;5071419;28;20221;-59
2022/05/21 03:18:02;;;;;;;1.25;1.00;;;16.90;55.60;;;;;;5071213;28;20581;-58
2022/05/21 03:20:32;;;;;;;1.63;0.85;;;16.90;55.60;;;;;;5070122;28;20195;-59
2022/05/21 03:23:03;;;;;;;1.73;1.02;;;16.90;55.60;;;;;;5051575;28;20626;-58
2022/05/21 03:25:35;;;;;;;1.92;1.00;;;17.00;55.60;;;;;;5062669;28;20191;-59
2022/05/21 03:28:07;;;;;;;1.73;1.10;;;17.00;55.60;;;;;;5071260;28;20633;-58
2022/05/21 03:30:37;;;;;;;2.20;0.85;;;17.00;55.50;;;;;;5071391;28;20217;-58
2022/05/21 03:33:08;;;;;;;2.17;0.85;;;17.10;55.60;;;;;;5071337;28;20284;-59
2022/05/21 03:35:41;;;;;;;3.10;1.17;;;17.10;55.50;;;;;;5070480;28;20244;-59
2022/05/21 03:38:12;;;;;;;2.00;1.00;;;17.10;55.60;;;;;;5070697;28;20223;-59
2022/05/21 03:40:45;;;;;;;1.10;0.80;;;17.10;55.50;;;;;;5070636;28;20644;-59
2022/05/21 03:43:15;;;;;;;2.15;1.17;;;17.20;55.50;;;;;;5070637;28;20227;-59
2022/05/21 03:45:46;;;;;;;0.82;0.70;;;17.20;55.60;;;;;;5071518;28;20199;-58
2022/05/21 03:48:18;;;;;;;2.00;0.90;;;17.20;55.70;;;;;;5070911;28;20297;-59
2022/05/21 03:50:48;;;;;;;2.88;0.93;;;17.30;55.70;;;;;;5070518;28;20194;-59
2022/05/21 03:53:19;;;;;;;1.73;0.80;;;17.30;55.70;;;;;;5071078;28;20207;-58
2022/05/21 03:55:52;;;;;;;1.20;1.00;;;17.30;55.70;;;;;;5070764;28;20893;-59
2022/05/21 03:58:23;;;;;;;1.67;0.95;;;17.40;55.60;;;;;;5070672;28;20290;-59
2022/05/21 04:00:53;;;;;;;1.13;0.63;;;17.40;55.60;;;;;;5070907;28;20191;-59
2022/05/21 04:03:24;;;;;;;1.60;0.88;;;17.40;55.60;;;;;;5070581;28;20682;-59
2022/05/21 04:05:57;;;;;;;2.05;1.17;;;17.40;55.70;;;;;;5070098;28;20195;-58
2022/05/21 04:08:28;;;;;;;0.98;0.80;;;17.50;55.80;;;;;;5070483;28;20264;-59
2022/05/21 04:11:01;;;;;;;1.48;1.00;;;17.50;55.80;;;;;;5070058;28;20299;-59
2022/05/21 04:13:31;;;;;;;1.45;0.88;;;17.50;55.80;;;;;;5070287;28;20659;-58
2022/05/21 04:16:02;;;;;;;1.35;0.85;;;17.60;55.70;;;;;;5070409;28;20199;-59
2022/05/21 04:18:32;;;;;;;1.50;0.95;;;17.60;55.70;;;;;;5070212;28;20230;-58
2022/05/21 04:21:03;;;;;;;1.42;0.93;;;17.60;55.60;;;;;;5069806;28;20292;-59
2022/05/21 04:23:34;;;;;;;2.17;1.10;;;17.60;55.60;;;;;;5070504;28;20595;-58
2022/05/21 04:26:06;;;;;;;1.67;0.90;;;17.60;55.60;;;;;;5070460;28;20741;-58
2022/05/21 04:28:38;;;;;;;1.77;0.85;;;17.60;55.40;;;;;;5070262;28;20195;-59
2022/05/21 04:31:08;;;;;;;1.17;0.85;;;17.70;55.40;;;;;;5069796;28;20191;-59
2022/05/21 04:33:39;;;;;;;2.47;0.82;;;17.60;55.10;;;;;;5070154;28;20219;-58
2022/05/21 04:36:22;;;;;;;1.10;0.73;;;17.60;55.00;;;;;;5069805;28;20279;-59
2022/05/21 04:38:55;;;;;;;1.02;0.75;;;17.70;55.50;;;;;;5070285;28;20595;-59
2022/05/21 04:41:27;;;;;;;1.10;0.90;;;17.70;54.80;;;;;;5070242;28;20203;-58
2022/05/21 04:43:58;;;;;;;2.25;0.90;;;17.70;54.80;;;;;;5070223;28;20211;-59
2022/05/21 04:46:28;;;;;;;1.17;0.80;;;17.70;54.80;;;;;;5070570;28;20195;-59
2022/05/21 04:48:59;;;;;;;2.22;1.10;;;17.70;55.50;;;;;;5070232;28;20241;-59
2022/05/21 04:51:29;;;;;;;1.35;0.80;;;17.70;54.90;;;;;;5069687;28;20195;-59
2022/05/21 04:54:00;;;;;;;1.20;0.73;;;17.70;55.00;;;;;;5069717;28;20246;-59
2022/05/21 04:56:34;;;;;;;1.23;0.73;;;17.70;55.00;;;;;;5069702;28;20241;-59
2022/05/21 04:59:04;;;;;;;1.08;0.88;;;17.70;54.90;;;;;;5069365;28;20678;-59
2022/05/21 05:01:35;;;;;;;0.85;0.70;;;17.80;54.90;;;;;;5069862;28;20259;-58
2022/05/21 05:04:05;;;;;;;1.42;0.85;;;17.80;54.80;;;;;;5069790;28;20238;-59
2022/05/21 05:06:37;;;;;;;2.15;0.85;;;17.80;54.70;;;;;;5069392;28;20653;-59
2022/05/21 05:09:07;;;;;;;1.00;0.77;;;17.70;54.70;;;;;;5069837;28;20203;-59
2022/05/21 05:11:40;;;;;;;1.48;0.70;;;17.80;54.70;;;;;;5069736;28;20195;-59
2022/05/21 05:14:10;;;;;;;2.20;0.90;;;17.70;54.60;;;;;;5069653;28;20362;-58
2022/05/21 05:16:41;;;;;;;1.35;0.80;;;17.70;54.80;;;;;;5069644;28;20319;-59
2022/05/21 05:19:12;;;;;;;1.42;1.00;;;17.70;54.80;;;;;;5069562;28;20639;-59
2022/05/21 05:21:42;;;;;;;1.92;0.95;;;17.70;54.70;;;;;;5069364;28;20252;-59
2022/05/21 05:24:13;;;;;;;0.93;0.80;;;17.70;54.70;;;;;;5069716;28;20214;-59
2022/05/21 05:26:45;;;;;;;1.10;0.93;;;17.70;54.60;;;;;;5069435;28;20525;-59
2022/05/21 05:29:15;;;;;;;1.20;0.90;;;17.70;54.60;;;;;;5069797;28;20671;-59
2022/05/21 05:31:46;;;;;;;1.45;0.95;;;17.70;55.20;;;;;;5069459;28;20222;-58
2022/05/21 05:34:16;;;;;;;1.48;0.80;;;17.70;54.60;;;;;;5069485;28;20276;-59
2022/05/21 05:36:48;;;;;;;0.90;0.70;;;17.70;54.60;;;;;;5068942;28;20253;-59
2022/05/21 05:39:18;;;;;;;1.40;0.90;;;17.70;54.60;;;;;;5069278;28;20564;-59
2022/05/21 05:41:51;;;;;;;1.15;0.90;;;17.70;54.60;;;;;;5068986;28;20195;-59
2022/05/21 05:44:22;;;;;;;1.33;0.95;;;17.70;54.60;;;;;;5071346;28;20241;-59
2022/05/21 05:46:52;;;;;;;1.05;0.63;;;17.70;54.70;;;;;;5073790;28;20205;-59
2022/05/21 05:49:23;;;;;;;2.15;0.85;;;17.60;54.60;;;;;;5073272;28;20195;-59
2022/05/21 05:51:53;;;;;;;1.50;0.80;;;17.60;54.50;;;;;;5072668;28;20256;-59
2022/05/21 05:54:24;;;;;;;1.00;0.90;;;17.60;55.10;;;;;;5073417;28;20272;-59
2022/05/21 05:56:56;;;;;;;1.15;0.88;;;17.60;54.50;;;;;;5073012;28;20222;-59
2022/05/21 06:05:00;;;;;;;1.90;1.00;;;17.50;54.30;;;;;;5072941;28;20327;-59
2022/05/21 06:07:30;;;;;;;1.27;0.80;;;17.50;54.20;;;;;;5072659;28;20272;-59
2022/05/21 06:10:04;;;;;;;1.20;0.80;;;17.50;54.20;;;;;;5072869;28;20202;-59
2022/05/21 06:12:37;;;;;;;1.33;0.98;;;17.50;54.20;;;;;;5072882;28;20268;-59
2022/05/21 06:15:09;;;;;;;1.00;0.80;;;17.50;54.20;;;;;;5072826;28;20549;-59
2022/05/21 06:17:39;;;;;;;1.67;0.80;;;17.50;54.20;;;;;;5072714;28;20292;-58
2022/05/21 06:20:14;;;;;;;1.92;0.90;;;17.50;54.20;;;;;;5072700;28;20199;-59
2022/05/21 06:22:45;;;;;;;0.90;0.80;;;17.40;54.20;;;;;;5072131;28;20264;-59
2022/05/21 06:25:18;;;;;;;1.70;1.00;;;17.40;54.20;;;;;;5072507;28;20659;-59
2022/05/21 06:27:51;;;;;;;1.60;0.90;;;17.40;54.20;;;;;;5072500;28;20207;-59
2022/05/21 06:30:23;;;;;;;1.27;0.82;;;17.40;54.20;;;;;;5072661;28;20658;-59
2022/05/21 06:32:54;;;;;;;1.10;0.95;;;17.40;54.20;;;;;;5072482;28;20219;-59
2022/05/21 06:35:26;;;;;;;1.30;0.95;;;17.40;54.20;;;;;;5072224;28;20677;-59
2022/05/21 06:37:57;;;;;;;1.17;0.90;;;17.30;54.20;;;;;;5071677;28;20230;-59
2022/05/21 06:40:27;;;;;;;1.00;0.80;;;17.30;54.20;;;;;;5072386;28;20198;-59
2022/05/21 06:43:00;;;;;;;1.23;1.00;;;17.30;54.20;;;;;;5072403;28;20295;-59
2022/05/21 06:45:32;;;;;;;1.77;0.80;;;17.30;54.10;;;;;;5072252;28;20662;-58
2022/05/21 06:48:08;;;;;;;1.88;0.90;;;17.30;54.10;;;;;;5072536;28;20202;-58
2022/05/21 06:50:40;;;;;;;1.38;0.90;;;17.20;54.00;;;;;;5072209;28;20199;-59
2022/05/21 06:53:11;;;;;;;1.33;0.80;;;17.20;54.10;;;;;;5071638;28;20272;-59
2022/05/21 06:55:42;;;;;;;1.00;0.90;;;17.20;54.10;;;;;;5072059;28;20583;-58
2022/05/21 06:58:15;;;;;;;1.67;1.00;;;17.20;54.10;;;;;;5071934;28;20253;-58
2022/05/21 07:00:45;;;;;;;1.77;1.02;;;17.20;54.00;;;;;;5072383;28;20236;-59
2022/05/21 07:03:16;;;;;;;0.75;0.68;;;17.20;54.10;;;;;;5071513;28;20264;-58
2022/05/21 07:08:33;;;;;;;0.98;0.80;;;17.10;54.10;;;;;;5070984;28;20201;-58
2022/05/21 07:11:03;;;;;;;1.15;0.90;;;17.10;54.10;;;;;;5066696;28;20191;-58
2022/05/21 07:13:37;;;;;;;1.90;1.23;;;17.10;54.10;;;;;;5061834;28;20218;-58
2022/05/21 07:16:08;;;;;;;1.02;0.95;;;17.10;54.10;;;;;;5070156;28;20264;-59
2022/05/21 07:18:38;;;;;;;1.20;1.10;;;17.10;54.20;;;;;;5071018;28;20555;-58
2022/05/21 07:21:10;;;;;;;1.50;1.10;;;17.00;54.20;;;;;;5070558;28;20915;-59
2022/05/21 07:23:41;;;;;;;1.63;1.25;;;17.00;54.20;;;;;;5070178;28;20306;-58
2022/05/21 07:26:11;;;;;;;2.05;1.27;;;17.00;54.20;;;;;;5071292;28;20617;-58
2022/05/21 07:28:44;;;;;;;1.40;1.05;;;17.00;54.30;;;;;;5070372;28;20230;-58
2022/05/21 07:31:14;;;;;;;1.60;0.93;;;16.90;54.20;;;;;;5070091;28;20191;-58
2022/05/21 07:33:45;;;;;;;1.55;1.17;;;16.90;54.10;;;;;;5071354;28;20222;-58
2022/05/21 07:36:15;;;;;;;1.20;0.82;;;16.90;54.20;;;;;;5071393;28;20829;-59
2022/05/21 07:38:46;;;;;;;1.65;1.40;;;16.90;54.20;;;;;;5056485;28;20231;-58
2022/05/21 07:41:16;;;;;;;2.60;1.60;;;16.90;54.20;;;;;;5050611;28;20196;-58
2022/05/21 07:43:49;;;;;;;2.05;1.20;;;16.80;54.10;;;;;;5050472;28;20269;-58
2022/05/21 07:46:19;;;;;;;2.00;1.35;;;16.80;54.10;;;;;;5051474;28;20195;-58
2022/05/21 07:48:50;;;;;;;1.42;1.13;;;16.80;54.20;;;;;;5050817;28;20203;-58
2022/05/21 07:51:20;;;;;;;2.35;1.58;;;16.80;54.20;;;;;;5050340;28;20417;-58
2022/05/21 07:53:51;;;;;;;2.63;1.58;;;16.80;54.20;;;;;;5063754;28;20229;-58
2022/05/21 07:56:21;;;;;;;2.10;1.63;;;16.80;54.20;;;;;;5070230;28;20199;-59
2022/05/21 07:58:54;;;;;;;1.70;1.60;;;16.80;54.20;;;;;;5070656;28;20272;-58
2022/05/21 08:01:24;;;;;;;2.28;1.73;;;16.70;54.20;;;;;;5070974;28;20198;-58
2022/05/21 08:03:55;;;;;;;2.00;1.65;;;16.70;54.20;;;;;;5070796;28;20246;-58
2022/05/21 08:06:25;;;;;;;1.70;1.60;;;16.70;54.20;;;;;;5070155;28;20190;-58
2022/05/21 08:08:57;;;;;;;1.85;1.52;;;16.70;54.30;;;;;;5070309;28;20200;-58
2022/05/21 08:11:27;;;;;;;2.28;1.90;;;16.70;54.30;;;;;;5070257;28;20241;-58
2022/05/21 08:14:00;;;;;;;2.22;1.83;;;16.60;54.30;;;;;;5069867;28;20214;-58
2022/05/21 08:16:31;;;;;;;2.00;1.58;;;16.60;54.30;;;;;;5070967;28;20232;-57
2022/05/21 08:19:01;;;;;;;2.95;1.60;;;16.60;54.30;;;;;;5070495;28;20233;-58
2022/05/21 08:21:32;;;;;;;2.53;1.92;;;16.60;54.30;;;;;;5069924;28;20251;-58
2022/05/21 08:26:59;;;;;;;2.30;1.52;;;16.50;54.20;;;;;;5070332;28;20665;-58
2022/05/21 08:29:33;;;;;;;3.13;2.13;;;16.50;54.30;;;;;;5070368;28;20286;-58
2022/05/21 08:32:05;;;;;;;2.20;2.00;;;16.50;54.30;;;;;;5069968;28;20234;-58
2022/05/21 08:34:35;;;;;;;2.40;1.98;;;16.50;54.30;;;;;;5069804;28;20222;-58
2022/05/21 08:37:06;;;;;;;2.03;1.80;;;16.50;54.30;;;;;;5069547;28;20240;-58
2022/05/21 08:39:37;;;;;;;2.22;1.65;;;16.40;54.30;;;;;;5069377;28;20269;-58
2022/05/21 08:42:13;;;;;;;2.60;1.70;;;16.40;54.30;;;;;;5070170;28;20308;-58
2022/05/21 08:44:48;;;;;;;3.00;2.13;;;16.40;54.30;;;;;;5069921;28;20208;-58
2022/05/21 08:47:23;;;;;;;2.42;1.80;;;16.40;54.30;;;;;;5070297;28;20664;-58
2022/05/21 08:49:59;;;;;;;2.55;1.77;;;16.30;54.30;;;;;;5070039;28;20190;-58
2022/05/21 08:52:32;;;;;;;2.45;1.70;;;16.40;54.40;;;;;;5070002;28;20658;-59
2022/05/21 08:55:05;;;;;;;2.58;1.80;;;16.30;54.40;;;;;;5050101;28;20195;-58
2022/05/21 08:57:44;;;;;;;2.17;1.90;;;16.30;55.00;;;;;;5049821;28;20804;-58
2022/05/21 09:00:20;;;;;;;2.22;2.00;;;16.30;54.40;;;;;;5049885;28;20199;-58
2022/05/21 09:02:52;;;;;;;2.88;1.80;;;16.20;54.40;;;;;;5049729;28;20268;-58
2022/05/21 09:05:24;;;;;;;2.05;1.70;;;16.20;54.40;;;;;;5049341;28;20203;-58
2022/05/21 09:08:04;;;;;;;1.70;1.60;;;16.20;54.40;;;;;;5051445;28;20202;-58
2022/05/21 09:10:47;;;;;;;2.88;1.90;;;16.20;54.40;;;;;;5069837;28;20198;-58
2022/05/21 09:13:21;;;;;;;1.85;1.75;;;16.10;54.40;;;;;;5069816;28;20219;-58
2022/05/21 09:18:40;;;;;;;2.03;1.80;;;16.10;54.50;;;;;;5071215;28;20307;-58
2022/05/21 09:21:16;;;;;;;2.50;1.80;;;16.10;54.50;;;;;;5073747;28;20190;-59
2022/05/21 09:23:53;;;;;;;2.28;1.80;;;16.10;54.50;;;;;;5073508;28;20218;-58
2022/05/21 09:26:25;;;;;;;3.00;1.92;;;16.10;54.50;;;;;;5073825;28;20244;-58
2022/05/21 09:29:12;;;;;;;2.03;1.80;;;16.00;54.50;;;;;;5073703;28;20234;-59
2022/05/21 09:31:44;;;;;;;2.25;1.92;;;16.00;54.50;;;;;;5073056;28;20292;-59
2022/05/21 09:34:21;;;;;;;2.25;1.70;;;16.00;54.50;;;;;;5073431;28;20254;-59
2022/05/21 09:36:52;;;;;;;2.05;1.75;;;16.00;54.50;;;;;;5073458;28;20563;-59
2022/05/21 09:39:38;;;;;;;2.15;1.83;;;15.90;54.50;;;;;;5072963;28;20331;-59
2022/05/21 09:45:22;;;;;;;2.47;1.80;;;15.90;54.50;;;;;;5073360;28;20825;-59
2022/05/21 09:45:26;;;;;;;2.28;1.75;;;15.90;54.60;;;;;;5072743;28;20199;-59
2022/05/21 09:48:19;;;;;;;3.03;2.10;;;15.90;54.60;;;;;;5088499;28;20193;-59
2022/05/21 09:50:53;;;;;;;2.38;1.75;;;15.90;54.70;;;;;;5089719;28;20198;-60
2022/05/21 09:53:33;;;;;;;1.95;1.80;;;15.80;54.60;;;;;;5092156;28;20307;-59
2022/05/21 09:56:06;;;;;;;2.28;1.90;;;15.80;54.70;;;;;;5091379;28;20201;-59
2022/05/21 09:58:41;;;;;;;2.00;1.80;;;15.80;54.70;;;;;;5088710;28;20214;-59
2022/05/21 10:01:15;;;;;;;2.13;1.70;;;15.80;54.70;;;;;;5091818;28;20194;-59
2022/05/21 10:03:50;;;;;;;1.98;1.77;;;15.80;54.70;;;;;;5091214;28;20296;-59
2022/05/21 10:06:30;;;;;;;2.80;2.10;;;15.70;54.70;;;;;;5090845;28;20802;-59
2022/05/21 10:11:59;;;;;;;2.75;2.15;;;15.70;54.80;;;;;;5091553;28;20553;-59
2022/05/21 10:14:34;;;;;;;2.13;1.92;;;15.70;54.80;;;;;;5091626;28;20214;-59
2022/05/21 10:17:10;;;;;;;2.67;2.17;;;15.70;54.80;;;;;;5091251;28;20190;-59
2022/05/21 10:19:48;;;;;;;2.40;2.20;;;15.70;54.90;;;;;;5090883;28;20664;-59
2022/05/21 10:22:32;;;;;;;2.33;2.05;;;15.60;54.80;;;;;;5090277;28;20306;-59
2022/05/21 10:25:09;;;;;;;2.28;2.03;;;15.60;54.80;;;;;;5091008;28;20226;-60
2022/05/21 10:28:08;;;;;;;2.20;1.90;;;15.60;54.80;;;;;;5091364;28;20992;-59
2022/05/21 10:31:06;;;;;;;2.53;2.03;;;15.60;54.80;;;;;;5089951;28;20607;-59
2022/05/21 10:33:47;;;;;;;2.05;1.85;;;15.60;54.80;;;;;;5090323;28;20236;-58
2022/05/21 10:36:38;;;;;;;3.88;2.17;;;15.60;54.90;;;;;;5089903;28;20213;-59
2022/05/21 10:39:38;;;;;;;3.90;2.20;;;15.50;54.80;;;;;;5091467;28;20895;-59
2022/05/21 10:42:30;;;;;;;2.15;1.83;;;15.50;54.90;;;;;;5090096;28;20666;-59
2022/05/21 10:45:11;;;;;;;2.10;1.90;;;15.50;54.90;;;;;;5089920;28;20243;-58
2022/05/21 10:48:10;;;;;;;3.22;2.00;;;15.50;55.00;;;;;;5088774;28;20723;-60
2022/05/21 10:50:44;;;;;;;2.40;2.05;;;15.50;55.00;;;;;;5090304;28;20244;-59
2022/05/21 10:53:39;;;;;;;3.88;2.20;;;15.50;55.00;;;;;;5090598;28;20213;-60
2022/05/21 10:56:31;;;;;;;3.00;2.00;;;15.40;54.90;;;;;;5090120;28;20190;-59
2022/05/21 10:59:16;;;;;;;3.15;2.15;;;15.40;54.90;;;;;;5089890;28;20245;-59
2022/05/21 11:01:57;;;;;;;2.58;2.08;;;15.40;54.90;;;;;;5091272;28;20186;-59
2022/05/21 11:04:53;;;;;;;2.65;2.17;;;15.40;55.00;;;;;;5089914;28;20217;-60
2022/05/21 11:07:36;;;;;;;4.57;2.60;;;15.40;55.00;;;;;;5089446;28;20234;-59
2022/05/21 11:10:19;;;;;;;3.13;2.13;;;15.40;55.00;;;;;;5089796;28;20275;-59
2022/05/21 11:12:57;;;;;;;2.33;2.13;;;15.40;55.00;;;;;;5088076;28;20275;-60
2022/05/21 11:15:42;;;;;;;2.47;2.20;;;15.40;55.00;;;;;;5089289;28;20654;-59
2022/05/21 11:18:19;;;;;;;2.67;1.98;;;15.30;55.00;;;;;;5089193;28;20202;-58
2022/05/21 11:20:59;;;;;;;3.40;2.17;;;15.30;55.10;;;;;;5089978;28;20233;-59
2022/05/21 11:23:38;;;;;;;2.20;1.90;;;15.30;55.10;;;;;;5089718;28;20220;-59
2022/05/21 11:26:15;;;;;;;2.95;1.80;;;15.30;55.10;;;;;;5084709;28;20198;-58
2022/05/21 11:28:49;;;;;;;2.25;1.90;;;15.30;55.10;;;;;;5089548;28;20190;-59
2022/05/21 11:39:47;;;;;;;2.38;2.10;;;15.20;55.00;;;;;;5089392;28;20225;-60
2022/05/21 11:42:22;;;;;;;3.33;2.33;;;15.20;55.00;;;;;;5087981;28;20186;-59
2022/05/21 11:44:58;;;;;;;3.13;2.33;;;15.20;55.10;;;;;;5088854;28;20258;-60
2022/05/21 11:47:45;;;;;;;2.20;2.00;;;15.20;55.10;;;;;;5089672;28;20198;-60
2022/05/21 11:50:21;;;;;;;2.90;2.10;;;15.20;55.10;;;;;;5089832;28;20673;-60
2022/05/21 11:53:09;;;;;;;3.38;2.00;;;15.20;55.10;;;;;;5088598;28;20205;-60
2022/05/21 11:56:02;;;;;;;4.32;2.20;;;15.20;55.10;;;;;;5089533;28;20281;-60
2022/05/21 11:59:10;;;;;;;2.47;1.90;;;15.10;55.00;;;;;;5088910;28;20666;-60
2022/05/21 12:02:12;;;;;;;4.60;1.95;;;15.10;55.10;;;;;;5072226;28;20237;-59
2022/05/21 12:04:58;;;;;;;2.10;1.80;;;15.10;55.10;;;;;;5089259;28;20598;-60
2022/05/21 12:07:56;;;;;;;2.78;1.88;;;15.10;55.10;;;;;;5088619;28;20222;-60
2022/05/21 12:10:33;;;;;;;2.60;1.80;;;15.00;55.10;;;;;;5089114;28;20194;-59
2022/05/21 12:13:12;;;;;;;2.10;1.83;;;15.00;55.10;;;;;;5089696;28;20288;-59
2022/05/21 12:15:46;;;;;;;2.20;1.63;;;15.00;55.10;;;;;;5089220;28;20251;-59
2022/05/21 12:18:38;;;;;;;2.40;1.80;;;15.00;55.10;;;;;;5081066;28;20191;-59
2022/05/21 12:21:12;;;;;;;2.30;1.90;;;15.00;55.10;;;;;;5071847;28;20199;-59
2022/05/21 12:24:07;;;;;;;3.05;2.00;;;15.00;55.10;;;;;;5071136;28;20218;-60
2022/05/21 12:26:40;;;;;;;2.75;1.98;;;15.00;55.10;;;;;;5069949;28;20190;-59
2022/05/21 12:29:17;;;;;;;2.13;1.63;;;15.00;55.10;;;;;;5070015;28;20272;-60
2022/05/21 12:31:52;;;;;;;2.30;1.80;;;14.90;55.10;;;;;;5070358;28;20279;-59
2022/05/21 12:34:57;;;;;;;2.40;1.90;;;14.90;55.10;;;;;;5069592;28;20223;-61
2022/05/21 12:37:31;;;;;;;2.20;1.85;;;14.90;55.10;;;;;;5070214;28;20199;-59
2022/05/21 12:40:13;;;;;;;2.80;1.80;;;14.90;55.10;;;;;;5069980;28;20223;-60
2022/05/21 12:42:46;;;;;;;2.28;2.00;;;14.90;55.10;;;;;;5069686;28;20682;-59
2022/05/21 12:45:32;;;;;;;3.13;1.88;;;14.90;55.10;;;;;;5069667;28;20286;-60
2022/05/21 12:48:11;;;;;;;3.03;2.00;;;14.90;55.10;;;;;;5070132;28;20244;-59
2022/05/21 12:50:52;;;;;;;3.60;1.80;;;14.90;55.10;;;;;;5069813;28;20272;-59
2022/05/21 12:53:30;;;;;;;1.88;1.70;;;14.80;55.10;;;;;;5069346;28;20821;-59
2022/05/21 12:56:03;;;;;;;2.15;1.55;;;14.80;55.10;;;;;;5069982;28;20229;-59
2022/05/21 12:58:34;;;;;;;2.20;1.83;;;14.80;55.10;;;;;;5069974;28;20244;-59
2022/05/21 13:01:05;;;;;;;2.53;1.75;;;14.80;55.20;;;;;;5069712;28;20250;-59
2022/05/21 13:03:40;;;;;;;2.15;1.70;;;14.80;55.10;;;;;;5069553;28;20588;-58
2022/05/21 13:06:15;;;;;;;3.13;1.95;;;14.80;55.10;;;;;;5069743;28;20271;-59
2022/05/21 13:08:46;;;;;;;2.17;1.63;;;14.80;55.20;;;;;;5069236;28;20194;-59
2022/05/21 13:11:21;;;;;;;3.17;2.20;;;14.70;55.10;;;;;;5068936;28;20256;-59
2022/05/21 13:13:58;;;;;;;2.25;1.52;;;14.70;55.10;;;;;;5069999;28;20219;-59
2022/05/21 13:16:30;;;;;;;2.55;1.60;;;14.70;55.10;;;;;;5069806;28;20340;-59
2022/05/21 13:19:20;;;;;;;2.00;1.80;;;14.70;55.10;;;;;;5068677;28;20195;-59
2022/05/21 13:21:59;;;;;;;2.17;1.85;;;14.70;55.00;;;;;;5069342;28;20264;-60
2022/05/21 13:24:41;;;;;;;2.47;1.60;;;14.70;55.10;;;;;;5069117;28;20271;-60
2022/05/21 13:27:13;;;;;;;1.77;1.67;;;14.70;55.00;;;;;;5068932;28;20198;-59
2022/05/21 13:29:44;;;;;;;2.83;1.73;;;14.70;55.10;;;;;;5069234;28;20252;-59
2022/05/21 13:32:25;;;;;;;4.10;1.98;;;14.70;55.10;;;;;;5069142;28;20195;-59
2022/05/21 13:34:58;;;;;;;2.30;1.70;;;14.60;55.10;;;;;;5068897;28;20187;-60
2022/05/21 13:37:36;;;;;;;2.80;2.08;;;14.60;55.10;;;;;;5069004;28;20241;-59
2022/05/21 13:40:14;;;;;;;2.33;1.73;;;14.60;55.10;;;;;;5069075;28;20307;-58
2022/05/21 13:42:48;;;;;;;3.53;1.80;;;14.60;55.10;;;;;;5069476;28;20279;-59
2022/05/21 13:45:23;;;;;;;2.60;1.95;;;14.60;55.10;;;;;;5069392;28;20655;-59
2022/05/21 13:47:56;;;;;;;2.13;1.90;;;14.50;55.00;;;;;;5070140;28;20194;-59
2022/05/21 13:50:30;;;;;;;3.13;1.98;;;14.60;55.10;;;;;;5069086;28;20253;-59
2022/05/21 13:53:04;;;;;;;2.70;1.88;;;14.60;55.10;;;;;;5069392;28;20226;-60
2022/05/21 13:55:34;;;;;;;2.10;1.80;;;14.50;55.00;;;;;;5069390;28;20619;-59
2022/05/21 13:58:18;;;;;;;1.90;1.58;;;14.50;55.00;;;;;;5069279;28;20195;-59